Time;durP1;ratioP1;P1;durP2;ratioP2;P2;SDS_P1;SDS_P2;PMS_P1;PMS_P2;Temp;Humidity;BMP_temperature;BMP_pressure;BME280_temperature;BME280_humidity;BME280_pressure;Samples;Min_cycle;Max_cycle;Signal;HPM_P1;HPM_P2
2022/07/08 00:02:23;;;;;;;11.88;3.50;;;;;;;15.36;70.92;102271.84;5082897;28;20090;-85
2022/07/08 00:04:50;;;;;;;12.30;4.22;;;;;;;15.34;71.21;102266.72;5083221;28;20374;-85
2022/07/08 00:07:17;;;;;;;9.43;3.70;;;;;;;15.32;71.41;102267.84;5082843;28;20076;-85
2022/07/08 00:09:43;;;;;;;10.18;4.07;;;;;;;15.23;71.78;102269.56;5082448;28;20058;-84
2022/07/08 00:12:10;;;;;;;12.77;3.75;;;;;;;15.22;72.33;102267.88;5082304;28;20072;-84
2022/07/08 00:14:37;;;;;;;11.60;3.75;;;;;;;15.21;72.19;102276.78;5081883;28;20060;-84
2022/07/08 00:17:05;;;;;;;8.32;3.55;;;;;;;15.13;73.00;102279.31;5082305;28;20091;-84
2022/07/08 00:19:32;;;;;;;8.07;3.70;;;;;;;15.10;73.18;102291.00;5081990;28;20094;-83
2022/07/08 00:21:58;;;;;;;10.80;3.80;;;;;;;15.12;73.24;102285.59;5082082;28;20076;-83
2022/07/08 00:24:25;;;;;;;11.65;3.85;;;;;;;15.05;73.75;102277.44;5080359;28;20075;-84
2022/07/08 00:26:52;;;;;;;11.32;4.75;;;;;;;15.00;74.18;102278.84;5082495;28;20091;-87
2022/07/08 00:29:18;;;;;;;16.88;4.53;;;;;;;15.05;74.32;102281.88;5082358;28;20084;-85
2022/07/08 00:31:45;;;;;;;12.52;3.88;;;;;;;15.07;74.52;102291.28;5081273;28;20072;-84
2022/07/08 00:34:13;;;;;;;10.27;3.67;;;;;;;15.08;74.71;102286.84;5081765;28;20481;-84
2022/07/08 00:36:40;;;;;;;12.23;4.43;;;;;;;15.07;74.67;102285.19;5083171;28;20048;-84
2022/07/08 00:39:07;;;;;;;10.05;3.97;;;;;;;14.97;75.48;102279.13;5080858;28;20439;-83
2022/07/08 00:41:34;;;;;;;7.50;4.30;;;;;;;14.91;75.77;102281.34;5081274;28;20082;-85
2022/07/08 00:44:00;;;;;;;12.27;3.95;;;;;;;14.85;76.38;102287.19;5087939;28;20052;-80
2022/07/08 00:46:27;;;;;;;9.38;4.35;;;;;;;14.71;76.88;102285.00;5092130;28;20056;-84
2022/07/08 00:48:54;;;;;;;11.63;3.90;;;;;;;14.64;77.38;102283.94;5086297;28;20496;-82
2022/07/08 00:51:22;;;;;;;10.80;4.32;;;;;;;14.64;77.51;102283.94;5085524;28;20036;-82
2022/07/08 00:53:52;;;;;;;13.98;4.53;;;;;;;14.63;77.75;102282.28;5085800;28;20143;-82
2022/07/08 00:56:20;;;;;;;11.25;3.97;;;;;;;14.60;78.10;102291.31;5086161;28;20059;-83
2022/07/08 00:58:48;;;;;;;13.57;4.35;;;;;;;14.56;78.08;102286.47;5083844;28;20437;-81
2022/07/08 01:01:15;;;;;;;10.30;4.07;;;;;;;14.53;78.42;102297.28;5084484;28;20060;-83
2022/07/08 01:03:42;;;;;;;9.25;4.05;;;;;;;14.54;78.47;102299.75;5084959;28;20118;-84
2022/07/08 01:06:09;;;;;;;13.75;4.57;;;;;;;14.51;78.60;102293.94;5082878;28;20080;-84
2022/07/08 01:08:37;;;;;;;12.48;4.18;;;;;;;14.48;78.73;102289.78;5082965;28;20071;-84
2022/07/08 01:11:04;;;;;;;11.07;4.38;;;;;;;14.52;78.85;102295.59;5082172;28;20051;-84
2022/07/08 01:13:31;;;;;;;10.02;4.07;;;;;;;14.44;79.00;102298.13;5083450;28;20044;-85
2022/07/08 01:15:58;;;;;;;13.60;3.83;;;;;;;14.49;79.17;102303.78;5083652;28;20048;-87
2022/07/08 01:18:27;;;;;;;15.43;4.72;;;;;;;14.45;78.83;102295.34;5083332;28;20091;-87
2022/07/08 01:20:56;;;;;;;12.52;4.10;;;;;;;14.53;78.85;102292.00;5082773;28;20045;-86
2022/07/08 01:23:22;;;;;;;12.10;4.07;;;;;;;14.55;78.71;102303.22;5081885;28;20090;-86
2022/07/08 01:25:49;;;;;;;13.77;4.28;;;;;;;14.57;78.84;102303.94;5080953;28;20044;-85
2022/07/08 01:28:16;;;;;;;13.88;5.10;;;;;;;14.61;78.71;102302.66;5081169;28;20135;-83
2022/07/08 01:30:44;;;;;;;12.93;4.10;;;;;;;14.67;78.81;102301.25;5081429;28;20075;-85
2022/07/08 01:33:10;;;;;;;17.50;5.13;;;;;;;14.64;78.93;102312.94;5081501;28;20090;-83
2022/07/08 01:35:37;;;;;;;12.38;4.20;;;;;;;14.70;78.55;102304.44;5080183;28;20087;-84
2022/07/08 01:38:06;;;;;;;16.05;5.22;;;;;;;14.70;78.52;102304.44;5081033;28;20052;-85
2022/07/08 01:40:32;;;;;;;8.40;3.72;;;;;;;14.73;78.31;102303.31;5080694;28;20072;-85
2022/07/08 01:42:59;;;;;;;12.73;4.22;;;;;;;14.73;78.30;102298.88;5081618;28;20076;-85
2022/07/08 01:45:26;;;;;;;17.15;7.28;;;;;;;14.74;78.27;102303.16;5085384;28;20049;-85
2022/07/08 01:47:52;;;;;;;11.55;4.35;;;;;;;14.77;77.78;102292.34;5081793;28;20060;-83
2022/07/08 01:50:19;;;;;;;11.10;4.20;;;;;;;14.70;77.87;102295.69;5081213;28;20204;-85
2022/07/08 01:52:45;;;;;;;11.00;4.72;;;;;;;14.73;78.10;102300.69;5081530;28;20151;-83
2022/07/08 01:55:13;;;;;;;12.60;4.50;;;;;;;14.73;77.90;102298.03;5081267;28;20087;-83
2022/07/08 01:57:40;;;;;;;14.00;4.05;;;;;;;14.71;77.99;102297.34;5081172;28;20453;-83
2022/07/08 02:00:08;;;;;;;11.93;3.92;;;;;;;14.74;77.76;102297.91;5080732;28;20068;-82
2022/07/08 02:02:35;;;;;;;11.02;4.18;;;;;;;14.70;77.86;102293.88;5081405;28;20059;-83
2022/07/08 02:05:01;;;;;;;11.10;3.78;;;;;;;14.66;77.91;102300.41;5081721;28;20081;-83
2022/07/08 02:07:31;;;;;;;8.35;3.85;;;;;;;14.64;77.95;102297.13;5080893;28;20053;-82
2022/07/08 02:09:57;;;;;;;14.07;4.20;;;;;;;14.68;78.04;102305.53;5078745;28;20068;-82
2022/07/08 02:12:24;;;;;;;8.68;3.90;;;;;;;14.65;78.11;102301.38;5080323;28;20075;-83
2022/07/08 02:14:53;;;;;;;12.38;4.32;;;;;;;14.55;78.39;102287.44;5080618;28;20055;-83
2022/07/08 02:17:24;;;;;;;12.10;4.22;;;;;;;14.59;78.61;102292.28;5079857;28;20514;-85
2022/07/08 02:19:51;;;;;;;10.63;3.83;;;;;;;14.64;78.31;102296.28;5078612;28;20155;-83
2022/07/08 02:22:18;;;;;;;10.40;4.93;;;;;;;14.62;78.67;102306.97;5077663;28;20131;-84
2022/07/08 02:24:47;;;;;;;13.88;4.63;;;;;;;14.50;79.11;102308.91;5078893;28;20135;-83
2022/07/08 02:27:14;;;;;;;9.57;4.15;;;;;;;14.41;79.50;102295.72;5078483;28;20508;-82
2022/07/08 02:29:42;;;;;;;11.38;4.38;;;;;;;14.41;79.52;102298.34;5082818;28;20039;-84
2022/07/08 02:32:09;;;;;;;9.43;4.22;;;;;;;14.41;79.38;102296.59;5097077;28;20083;-87
2022/07/08 02:34:36;;;;;;;9.80;4.18;;;;;;;14.34;79.63;102292.81;5096824;28;20047;-85
2022/07/08 02:37:03;;;;;;;9.88;4.10;;;;;;;14.26;79.84;102296.16;5096138;28;20033;-85
2022/07/08 02:39:30;;;;;;;15.18;4.40;;;;;;;14.25;79.93;102291.03;5090495;28;20489;-85
2022/07/08 02:41:56;;;;;;;9.98;3.80;;;;;;;14.22;80.47;102299.19;5079858;28;20072;-83
2022/07/08 02:44:23;;;;;;;16.35;4.30;;;;;;;14.17;80.39;102291.75;5079219;28;20460;-83
2022/07/08 02:46:51;;;;;;;9.48;3.78;;;;;;;14.08;80.71;102289.94;5079407;28;20082;-83
2022/07/08 02:49:17;;;;;;;14.30;5.72;;;;;;;14.05;81.17;102290.22;5079102;28;20120;-83
2022/07/08 02:51:44;;;;;;;14.45;4.25;;;;;;;14.04;80.98;102288.56;5078246;28;20080;-85
2022/07/08 02:54:11;;;;;;;11.48;4.20;;;;;;;14.08;80.72;102282.03;5078457;28;20103;-83
2022/07/08 02:56:38;;;;;;;9.73;3.95;;;;;;;14.05;80.84;102298.09;5079577;28;20064;-82
2022/07/08 02:59:05;;;;;;;9.35;4.07;;;;;;;14.07;80.92;102288.28;5080154;28;20489;-83
2022/07/08 03:01:32;;;;;;;13.50;4.65;;;;;;;14.09;80.94;102294.22;5080757;28;20049;-82
2022/07/08 03:04:00;;;;;;;11.90;3.85;;;;;;;14.13;81.00;102295.63;5083381;28;20108;-83
2022/07/08 03:06:26;;;;;;;11.70;4.25;;;;;;;14.09;80.99;102298.66;5082607;28;20135;-82
2022/07/08 03:08:53;;;;;;;13.10;4.30;;;;;;;14.09;80.94;102294.22;5079438;28;20052;-85
2022/07/08 03:11:20;;;;;;;15.95;4.20;;;;;;;14.12;81.01;102299.22;5078681;28;20059;-84
2022/07/08 03:13:46;;;;;;;16.58;4.03;;;;;;;14.12;80.93;102301.84;5079152;28;20045;-83
2022/07/08 03:16:13;;;;;;;13.40;4.30;;;;;;;14.15;81.13;102306.84;5078943;28;20056;-82
2022/07/08 03:18:39;;;;;;;11.65;4.22;;;;;;;14.18;81.13;102309.16;5078988;28;20076;-83
2022/07/08 03:21:08;;;;;;;9.88;4.43;;;;;;;14.31;80.50;102315.97;5079282;28;20052;-82
2022/07/08 03:23:35;;;;;;;9.90;4.07;;;;;;;14.31;80.41;102314.16;5080379;28;20045;-85
2022/07/08 03:26:02;;;;;;;10.50;4.30;;;;;;;14.27;80.72;102310.97;5084279;28;20056;-86
2022/07/08 03:28:29;;;;;;;11.93;4.20;;;;;;;14.31;80.61;102308.91;5083799;28;20052;-85
2022/07/08 03:30:55;;;;;;;11.98;4.28;;;;;;;14.29;80.60;102316.09;5080058;28;20072;-85
2022/07/08 03:33:22;;;;;;;15.15;4.90;;;;;;;14.32;80.63;102313.19;5079532;28;20478;-85
2022/07/08 03:35:49;;;;;;;13.90;4.30;;;;;;;14.27;80.57;102316.25;5082990;28;20072;-85
2022/07/08 03:38:17;;;;;;;11.85;3.78;;;;;;;14.27;80.66;102312.78;5083473;28;20463;-84
2022/07/08 03:43:27;;;;;;;14.85;5.00;;;;;;;14.34;80.33;102307.78;5082875;28;20060;-83
2022/07/08 03:45:54;;;;;;;15.15;5.10;;;;;;;14.31;80.61;102310.69;5082768;28;20056;-85
2022/07/08 03:48:21;;;;;;;11.35;4.30;;;;;;;14.32;80.63;102310.56;5082334;28;20063;-86
2022/07/08 03:50:47;;;;;;;14.65;4.70;;;;;;;14.17;81.04;102312.81;5080947;28;20087;-83
2022/07/08 03:53:14;;;;;;;12.60;4.53;;;;;;;14.16;81.70;102316.41;5081893;28;20076;-83
2022/07/08 03:55:42;;;;;;;11.85;4.70;;;;;;;14.15;81.78;102314.75;5095542;28;20154;-82
2022/07/08 03:58:09;;;;;;;10.68;4.60;;;;;;;14.15;82.08;102320.00;5101963;28;20494;-84
2022/07/08 04:00:35;;;;;;;10.60;4.47;;;;;;;14.10;82.40;102316.13;5101733;28;20351;-83
2022/07/08 04:03:02;;;;;;;15.95;4.95;;;;;;;14.04;82.05;102314.88;5101526;28;20083;-83
2022/07/08 04:05:29;;;;;;;9.38;4.70;;;;;;;13.97;82.29;102319.00;5101277;28;20131;-85
2022/07/08 04:07:55;;;;;;;14.23;4.50;;;;;;;13.96;82.49;102317.34;5101668;28;20523;-84
2022/07/08 04:10:22;;;;;;;12.55;5.45;;;;;;;13.90;82.80;102315.25;5101773;28;20048;-85
2022/07/08 04:12:50;;;;;;;13.90;5.10;;;;;;;13.90;82.96;102320.53;5101663;28;20090;-84
2022/07/08 04:15:17;;;;;;;8.35;4.22;;;;;;;13.92;83.02;102321.22;5101957;28;20079;-84
2022/07/08 04:17:44;;;;;;;12.35;4.25;;;;;;;13.95;82.72;102339.38;5101953;28;20423;-85
2022/07/08 04:20:11;;;;;;;10.30;4.60;;;;;;;14.02;82.67;102322.06;5104387;28;20127;-86
2022/07/08 04:22:38;;;;;;;12.70;5.65;;;;;;;14.13;81.83;102336.91;5105301;28;20059;-85
2022/07/08 04:25:05;;;;;;;12.20;4.88;;;;;;;14.12;81.94;102336.06;5103283;28;20075;-85
2022/07/08 04:27:32;;;;;;;10.85;4.90;;;;;;;14.22;81.68;102341.31;5101166;28;20074;-85
2022/07/08 04:30:00;;;;;;;13.05;4.63;;;;;;;14.25;81.47;102343.69;5101369;28;20075;-86
2022/07/08 04:32:26;;;;;;;11.30;4.40;;;;;;;14.36;81.07;102340.09;5102008;28;20083;-85
2022/07/08 04:34:58;;;;;;;11.27;4.45;;;;;;;14.46;80.76;102346.22;5101352;28;20075;-83
2022/07/08 04:37:25;;;;;;;12.48;4.75;;;;;;;14.54;80.41;102347.19;5100309;28;20090;-83
2022/07/08 04:39:51;;;;;;;12.05;4.80;;;;;;;14.71;80.12;102340.34;5101452;28;20487;-84
2022/07/08 04:42:18;;;;;;;16.83;5.43;;;;;;;14.82;79.46;102340.19;5101565;28;20072;-84
2022/07/08 04:44:44;;;;;;;10.55;4.40;;;;;;;15.23;78.02;102346.84;5101546;28;20087;-83
2022/07/08 04:47:12;;;;;;;12.93;4.68;;;;;;;15.64;76.66;102351.84;5099505;28;20076;-83
2022/07/08 04:49:39;;;;;;;13.38;4.32;;;;;;;15.85;75.23;102341.84;5101770;28;20566;-85
2022/07/08 04:52:06;;;;;;;14.57;4.43;;;;;;;16.22;72.95;102339.06;5100720;28;20079;-84
2022/07/08 04:54:33;;;;;;;7.43;4.22;;;;;;;16.26;72.82;102343.06;5102222;28;20052;-86
2022/07/08 04:56:59;;;;;;;12.77;4.28;;;;;;;16.34;72.55;102339.69;5101837;28;20101;-84
2022/07/08 05:07:48;;;;;;;10.25;4.13;;;;;;;17.22;68.20;102342.13;5005962;28;20101;-88
2022/07/08 05:10:16;;;;;;;11.98;4.47;;;;;;;17.33;67.50;102337.53;5066730;28;20044;-88
2022/07/08 05:12:42;;;;;;;9.88;4.60;;;;;;;17.85;66.36;102343.53;5076326;28;20060;-89
2022/07/08 05:19:04;;;;;;;12.30;3.92;;;;;;;17.98;65.52;102358.94;5056698;28;20045;-84
2022/07/08 05:28:01;;;;;;;11.65;4.15;;;;;;;19.18;60.60;102359.06;5061450;28;20053;-86
2022/07/08 05:30:32;;;;;;;11.55;4.10;;;;;;;19.42;59.86;102374.06;5055942;28;20516;-84
2022/07/08 05:33:02;;;;;;;10.32;3.70;;;;;;;20.36;57.74;102359.75;5054680;28;20069;-85
2022/07/08 05:35:32;;;;;;;10.00;3.40;;;;;;;20.84;55.87;102363.81;5054335;28;20052;-85
2022/07/08 05:38:04;;;;;;;8.35;3.40;;;;;;;21.34;54.13;102378.28;5054447;28;20052;-85
2022/07/08 05:40:35;;;;;;;13.18;3.90;;;;;;;21.31;53.19;102352.03;5055889;28;20056;-84
2022/07/08 05:43:03;;;;;;;10.88;3.50;;;;;;;20.90;53.51;102346.31;5056207;28;20049;-84
2022/07/08 05:45:37;;;;;;;8.40;3.53;;;;;;;21.23;53.04;102360.97;5057466;28;20053;-84
2022/07/08 05:48:05;;;;;;;10.73;3.80;;;;;;;22.34;50.65;102367.75;5058362;28;20106;-86
2022/07/08 05:53:15;;;;;;;7.82;3.60;;;;;;;21.80;50.68;102355.69;5054777;28;20056;-87
2022/07/08 05:56:03;;;;;;;9.60;3.35;;;;;;;22.29;50.12;102370.16;5042635;28;20045;-85
2022/07/08 05:59:04;;;;;;;10.73;3.72;;;;;;;22.08;50.20;102371.81;5038648;28;20111;-85
2022/07/08 06:01:43;;;;;;;8.23;3.28;;;;;;;22.06;50.79;102376.50;5037976;28;20473;-84
2022/07/08 06:04:09;;;;;;;13.52;3.90;;;;;;;23.13;48.87;102390.56;5067945;22;20036;-83
2022/07/08 06:06:36;;;;;;;8.90;3.17;;;;;;;22.43;48.91;102377.25;5079071;28;20119;-83
2022/07/08 06:09:03;;;;;;;9.88;3.35;;;;;;;22.95;48.14;102386.72;5077984;28;20558;-84
2022/07/08 06:11:31;;;;;;;6.60;3.17;;;;;;;22.96;47.76;102383.03;5078321;28;20044;-83
2022/07/08 06:13:57;;;;;;;8.93;3.28;;;;;;;24.24;45.66;102382.31;5076946;28;20054;-84
2022/07/08 06:16:24;;;;;;;7.00;3.20;;;;;;;24.38;44.91;102379.47;5058732;28;20084;-84
2022/07/08 06:18:51;;;;;;;12.18;3.15;;;;;;;24.15;44.73;102389.69;5058949;28;20059;-83
2022/07/08 06:21:18;;;;;;;7.97;3.20;;;;;;;23.64;45.82;102408.06;5060835;28;20084;-87
2022/07/08 06:23:44;;;;;;;9.80;3.65;;;;;;;24.03;45.00;102413.56;5061403;28;20099;-85
2022/07/08 06:26:11;;;;;;;11.07;4.18;;;;;;;24.17;45.13;102409.88;5060622;28;20044;-82
2022/07/08 06:28:39;;;;;;;10.13;3.70;;;;;;;23.64;45.71;102418.75;5059703;28;20056;-83
2022/07/08 06:31:06;;;;;;;7.05;3.30;;;;;;;23.86;45.42;102406.91;5060443;28;20045;-84
2022/07/08 06:33:33;;;;;;;8.45;3.40;;;;;;;23.37;45.96;102405.25;5067358;28;20049;-82
2022/07/08 06:36:00;;;;;;;8.88;3.40;;;;;;;24.50;44.35;102403.78;5070028;28;20230;-82
2022/07/08 06:38:26;;;;;;;10.43;3.20;;;;;;;23.89;43.79;102401.16;5069073;28;20052;-83
2022/07/08 06:40:53;;;;;;;11.40;3.20;;;;;;;23.92;45.04;102402.63;5059116;28;20088;-80
2022/07/08 06:43:19;;;;;;;8.15;2.92;;;;;;;25.15;42.37;102423.50;5059393;28;20053;-82
2022/07/08 06:45:47;;;;;;;8.15;3.20;;;;;;;25.13;41.49;102430.91;5058141;28;20076;-83
2022/07/08 06:48:14;;;;;;;7.50;3.15;;;;;;;24.18;43.48;102416.03;5059033;28;20087;-83
2022/07/08 06:50:41;;;;;;;9.43;3.20;;;;;;;23.63;44.58;102409.91;5059300;28;20080;-82
2022/07/08 06:53:08;;;;;;;7.57;3.10;;;;;;;24.69;43.42;102424.34;5059011;28;20064;-83
2022/07/08 06:55:34;;;;;;;11.23;3.35;;;;;;;24.99;41.83;102423.97;5059594;28;20069;-81
2022/07/08 06:58:01;;;;;;;8.50;2.83;;;;;;;23.70;43.66;102412.59;5059383;28;20468;-83
2022/07/08 07:00:28;;;;;;;7.78;2.90;;;;;;;24.54;43.61;102423.75;5059241;28;20048;-80
2022/07/08 07:02:56;;;;;;;6.90;2.92;;;;;;;24.47;42.03;102436.28;5058558;28;20077;-82
2022/07/08 07:05:23;;;;;;;9.85;3.55;;;;;;;24.46;41.81;102421.28;5058976;28;20049;-83
2022/07/08 07:07:49;;;;;;;9.65;3.20;;;;;;;23.97;43.26;102409.00;5059029;28;20052;-83
2022/07/08 07:10:16;;;;;;;9.25;3.42;;;;;;;23.73;42.69;102404.19;5061746;28;20086;-80
2022/07/08 07:12:43;;;;;;;9.23;3.00;;;;;;;25.88;40.55;102424.09;5063283;28;20531;-84
2022/07/08 07:15:11;;;;;;;6.85;2.92;;;;;;;25.92;38.79;102433.38;5065189;28;20056;-84
2022/07/08 07:17:42;;;;;;;8.40;2.50;;;;;;;25.24;39.85;102422.25;5065730;28;20425;-84
2022/07/08 07:20:11;;;;;;;12.60;3.42;;;;;;;23.64;42.58;102408.88;5065726;28;20124;-84
2022/07/08 07:22:38;;;;;;;6.38;2.60;;;;;;;22.45;44.49;102386.72;5064960;28;20049;-83
2022/07/08 07:25:05;;;;;;;11.43;3.42;;;;;;;22.22;46.69;102388.75;5064516;28;20163;-84
2022/07/08 07:27:32;;;;;;;22.80;3.53;;;;;;;21.28;48.33;102393.16;5064982;28;20076;-82
2022/07/08 07:29:59;;;;;;;12.10;3.17;;;;;;;21.05;49.10;102390.56;5063739;28;20131;-83
2022/07/08 07:32:27;;;;;;;7.47;3.45;;;;;;;22.09;47.88;102408.13;5063608;28;20496;-81
2022/07/08 07:34:54;;;;;;;9.60;3.10;;;;;;;23.09;45.49;102407.16;5063335;28;20132;-84
2022/07/08 07:37:22;;;;;;;7.10;3.17;;;;;;;23.38;44.30;102403.41;5064129;28;20140;-82
2022/07/08 07:39:48;;;;;;;7.68;3.30;;;;;;;24.58;42.77;102419.59;5064401;28;20056;-82
2022/07/08 07:42:15;;;;;;;6.90;3.05;;;;;;;24.48;42.67;102421.88;5061909;28;20539;-82
2022/07/08 07:44:42;;;;;;;6.95;3.05;;;;;;;25.79;40.51;102438.78;5061809;28;20049;-85
2022/07/08 07:47:08;;;;;;;5.50;2.65;;;;;;;26.19;38.88;102454.66;5061542;28;20137;-82
2022/07/08 07:49:35;;;;;;;8.65;3.22;;;;;;;25.87;39.42;102445.75;5060959;28;20363;-83
2022/07/08 07:52:03;;;;;;;9.27;3.30;;;;;;;24.29;41.42;102438.72;5062607;28;20072;-82
2022/07/08 07:54:31;;;;;;;11.70;3.03;;;;;;;23.83;42.94;102426.03;5045229;28;20099;-82
2022/07/08 07:56:57;;;;;;;10.23;3.03;;;;;;;24.58;42.25;102426.81;5061434;28;20053;-84
2022/07/08 07:59:24;;;;;;;6.15;3.15;;;;;;;24.22;42.91;102432.50;5060690;28;20132;-83
2022/07/08 08:01:51;;;;;;;5.20;2.88;;;;;;;23.07;44.50;102415.34;5061368;28;20052;-83
2022/07/08 08:04:17;;;;;;;7.93;2.83;;;;;;;22.26;46.16;102407.88;5059998;28;20084;-82
2022/07/08 08:06:44;;;;;;;7.22;2.97;;;;;;;21.52;47.53;102411.53;5065779;28;20053;-83
2022/07/08 08:09:10;;;;;;;11.75;3.63;;;;;;;21.04;48.78;102404.06;5073958;28;20069;-84
2022/07/08 08:11:39;;;;;;;8.38;3.28;;;;;;;22.09;48.03;102412.63;5075202;28;20059;-83
2022/07/08 08:14:05;;;;;;;8.38;3.65;;;;;;;23.15;43.87;102419.72;5074275;28;20053;-84
2022/07/08 08:16:32;;;;;;;8.65;3.55;;;;;;;23.76;43.09;102423.34;5063538;28;20084;-83
2022/07/08 08:18:59;;;;;;;8.55;3.30;;;;;;;24.40;41.42;102438.13;5063450;28;20059;-82
2022/07/08 08:21:25;;;;;;;9.52;3.25;;;;;;;24.80;40.91;102453.19;5061540;28;20460;-80
2022/07/08 08:23:52;;;;;;;10.48;2.90;;;;;;;25.12;40.68;102456.88;5062863;28;20092;-82
2022/07/08 08:26:19;;;;;;;6.35;2.92;;;;;;;24.48;41.36;102456.69;5055426;28;20041;-82
2022/07/08 08:28:47;;;;;;;10.25;3.30;;;;;;;25.16;39.94;102457.28;5053550;28;20091;-82
2022/07/08 08:31:14;;;;;;;6.90;3.55;;;;;;;23.77;42.46;102445.53;5054232;28;20101;-82
2022/07/08 08:33:40;;;;;;;7.03;3.10;;;;;;;24.69;41.35;102459.16;5055200;28;20056;-82
2022/07/08 08:36:08;;;;;;;7.25;3.05;;;;;;;25.03;40.98;102446.63;5057020;28;20084;-82
2022/07/08 08:38:34;;;;;;;8.05;3.25;;;;;;;25.26;40.34;102456.88;5055868;28;20076;-82
2022/07/08 08:41:02;;;;;;;9.55;3.50;;;;;;;24.66;40.51;102448.03;5043013;28;20081;-81
2022/07/08 08:43:29;;;;;;;9.40;3.53;;;;;;;23.62;43.00;102418.97;5046037;28;20406;-84
2022/07/08 08:45:57;;;;;;;10.25;3.67;;;;;;;24.22;43.23;102427.16;5062321;28;20048;-83
2022/07/08 08:48:25;;;;;;;8.35;3.40;;;;;;;23.61;42.94;102422.66;5065530;28;20072;-83
2022/07/08 08:50:55;;;;;;;8.27;3.60;;;;;;;24.60;43.15;102428.25;5063191;28;20084;-83
2022/07/08 08:53:25;;;;;;;10.45;4.00;;;;;;;24.49;42.37;102426.22;5060853;28;20293;-83
2022/07/08 08:55:52;;;;;;;8.35;3.50;;;;;;;25.13;42.12;102433.59;5054326;28;20072;-83
2022/07/08 08:58:19;;;;;;;6.40;2.47;;;;;;;25.18;42.46;102438.34;5066716;28;20045;-81
2022/07/08 09:00:46;;;;;;;5.93;3.17;;;;;;;24.32;42.33;102422.28;5063242;28;20045;-83
2022/07/08 09:03:14;;;;;;;8.85;2.75;;;;;;;24.91;41.92;102429.50;5065475;28;20053;-85
2022/07/08 09:05:40;;;;;;;6.88;3.10;;;;;;;25.16;41.34;102430.50;5050036;28;20105;-80
2022/07/08 09:08:07;;;;;;;8.45;3.50;;;;;;;24.72;40.51;102437.31;5049124;28;20060;-83
2022/07/08 09:10:34;;;;;;;6.22;3.30;;;;;;;24.89;40.81;102424.34;5062351;28;20052;-84
2022/07/08 09:13:02;;;;;;;10.27;3.67;;;;;;;24.02;42.26;102425.28;5062611;28;20107;-82
2022/07/08 09:15:33;;;;;;;8.07;3.88;;;;;;;25.04;41.86;102429.53;5061743;28;20048;-82
2022/07/08 09:18:02;;;;;;;7.35;3.38;;;;;;;25.04;40.06;102434.88;5061197;28;20493;-82
2022/07/08 09:20:38;;;;;;;9.25;3.72;;;;;;;24.49;41.35;102423.53;5061297;28;20049;-82
2022/07/08 09:23:05;;;;;;;9.90;3.30;;;;;;;24.05;42.73;102414.19;5047062;28;20055;-84
2022/07/08 09:25:33;;;;;;;7.53;2.95;;;;;;;24.30;43.38;102418.97;5061835;28;20049;-83
2022/07/08 09:28:00;;;;;;;8.80;3.55;;;;;;;24.15;43.46;102417.25;5061689;28;20121;-84
2022/07/08 09:30:29;;;;;;;6.72;3.40;;;;;;;23.55;44.33;102420.78;5062079;28;20067;-84
2022/07/08 09:32:59;;;;;;;8.82;3.10;;;;;;;24.13;43.81;102423.84;5061905;28;20053;-83
2022/07/08 09:35:34;;;;;;;8.57;3.25;;;;;;;23.86;43.15;102422.97;5062433;28;20053;-83
2022/07/08 09:38:02;;;;;;;10.85;3.60;;;;;;;24.36;42.96;102419.00;5058446;28;20045;-85
2022/07/08 09:40:30;;;;;;;9.93;3.13;;;;;;;24.58;42.47;102419.59;5049521;28;20042;-85
2022/07/08 09:42:56;;;;;;;9.48;3.58;;;;;;;24.44;41.82;102426.00;5061564;28;20076;-85
2022/07/08 09:45:29;;;;;;;7.13;2.88;;;;;;;24.93;41.95;102414.88;5060346;28;20057;-85
2022/07/08 09:48:01;;;;;;;;;;;;;;;25.15;40.81;102420.81;5063396;28;20123;-83
2022/07/08 09:50:37;;;;;;;6.60;2.70;;;;;;;25.27;39.75;102429.88;5062170;28;20007;-82
2022/07/08 09:53:18;;;;;;;9.48;3.25;;;;;;;24.83;40.86;102424.34;5064835;28;20049;-83
2022/07/08 09:55:49;;;;;;;9.38;3.15;;;;;;;24.19;41.68;102411.50;5065505;28;20144;-85
2022/07/08 09:58:16;;;;;;;8.73;3.25;;;;;;;23.97;41.96;102413.53;5065054;28;20104;-84
2022/07/08 10:00:44;;;;;;;6.80;3.35;;;;;;;23.97;41.72;102414.38;5065599;28;20410;-80
2022/07/08 10:03:12;;;;;;;8.35;3.30;;;;;;;24.38;42.04;102421.47;5067304;28;20072;-80
2022/07/08 10:05:41;;;;;;;10.00;3.38;;;;;;;24.15;42.21;102417.25;5074280;28;20057;-83
2022/07/08 10:08:09;;;;;;;6.68;2.95;;;;;;;23.94;41.27;102409.41;5075998;28;20036;-83
2022/07/08 10:10:37;;;;;;;8.30;3.40;;;;;;;24.12;42.66;102411.50;5069658;28;20049;-82
2022/07/08 10:13:04;;;;;;;11.68;4.05;;;;;;;24.25;42.28;102408.03;5067107;28;20052;-84
2022/07/08 10:15:32;;;;;;;8.38;3.58;;;;;;;23.62;42.73;102402.13;5066830;28;20064;-83
2022/07/08 10:18:05;;;;;;;6.57;3.13;;;;;;;23.99;42.16;102406.97;5067523;28;20056;-83
2022/07/08 10:20:34;;;;;;;7.53;3.03;;;;;;;23.19;43.56;102394.25;5066437;28;20131;-82
2022/07/08 10:23:07;;;;;;;7.82;3.20;;;;;;;23.20;43.94;102392.41;5065525;28;20102;-82
2022/07/08 10:25:34;;;;;;;6.40;2.92;;;;;;;23.39;43.64;102395.19;5066462;28;20074;-82
2022/07/08 10:28:08;;;;;;;8.25;3.03;;;;;;;23.78;42.87;102413.25;5066021;28;20091;-83
2022/07/08 10:30:51;;;;;;;7.88;3.03;;;;;;;23.63;44.35;102399.22;5065544;28;20362;-84
2022/07/08 10:33:20;;;;;;;8.27;2.90;;;;;;;24.63;42.50;102405.59;5063391;28;20041;-84
2022/07/08 10:36:03;;;;;;;7.97;2.90;;;;;;;24.36;42.69;102410.97;5064665;28;20116;-84
2022/07/08 10:38:34;;;;;;;8.55;3.42;;;;;;;24.17;42.00;102409.88;5061794;28;20127;-83
2022/07/08 10:41:07;;;;;;;10.93;3.40;;;;;;;24.17;42.77;102393.81;5061505;28;20056;-83
2022/07/08 10:43:33;;;;;;;8.20;3.08;;;;;;;24.64;41.80;102397.38;5060064;28;20049;-82
2022/07/08 10:46:02;;;;;;;10.75;3.60;;;;;;;25.05;41.23;102407.84;5062084;28;20130;-84
2022/07/08 10:48:29;;;;;;;9.88;3.15;;;;;;;24.85;41.52;102395.50;5061528;28;20570;-83
2022/07/08 10:50:56;;;;;;;9.35;3.50;;;;;;;25.27;41.02;102408.44;5061304;28;20144;-83
2022/07/08 10:53:23;;;;;;;7.68;3.15;;;;;;;25.25;40.93;102402.47;5060266;28;20049;-84
2022/07/08 10:55:51;;;;;;;9.55;3.10;;;;;;;24.47;42.57;102383.59;5059915;28;20064;-84
2022/07/08 10:58:17;;;;;;;9.45;3.40;;;;;;;23.85;43.00;102389.22;5061396;28;20048;-84
2022/07/08 11:01:17;;;;;;;10.10;2.83;;;;;;;23.82;42.77;102381.63;5062401;28;20057;-85
2022/07/08 11:03:45;;;;;;;7.65;3.30;;;;;;;23.66;43.21;102372.09;5052235;28;20041;-83
2022/07/08 11:06:38;;;;;;;10.13;4.05;;;;;;;24.58;42.75;102384.00;5048267;28;20057;-84
2022/07/08 11:09:07;;;;;;;9.57;3.30;;;;;;;24.60;41.34;102380.06;5059280;28;20132;-84
2022/07/08 11:11:41;;;;;;;8.65;2.88;;;;;;;25.11;41.28;102379.41;5061034;28;20079;-84
2022/07/08 11:14:09;;;;;;;9.52;3.17;;;;;;;25.42;41.63;102392.09;5062430;28;20103;-84
2022/07/08 11:16:38;;;;;;;7.25;3.35;;;;;;;24.99;42.21;102381.94;5058391;28;20053;-83
2022/07/08 11:19:06;;;;;;;10.55;3.35;;;;;;;25.45;40.72;102392.50;5044839;28;20128;-82
2022/07/08 11:21:36;;;;;;;9.60;3.65;;;;;;;25.77;41.24;102389.91;5048900;28;20053;-83
2022/07/08 11:24:02;;;;;;;7.65;3.13;;;;;;;25.95;40.70;102397.25;5059262;28;20053;-83
2022/07/08 11:26:30;;;;;;;11.38;3.47;;;;;;;25.60;40.80;102394.91;5053935;28;20052;-85
2022/07/08 11:28:58;;;;;;;8.88;3.30;;;;;;;25.95;41.19;102387.34;5060204;28;20072;-84
2022/07/08 11:31:25;;;;;;;10.60;3.70;;;;;;;25.23;42.15;102391.13;5050040;28;20046;-85
2022/07/08 11:33:52;;;;;;;7.55;3.22;;;;;;;24.90;42.31;102383.16;5056368;28;20045;-84
2022/07/08 11:36:20;;;;;;;10.23;3.45;;;;;;;25.05;42.72;102377.56;5062509;28;20084;-84
2022/07/08 11:38:47;;;;;;;10.75;3.40;;;;;;;25.28;42.54;102383.28;5062322;28;20084;-84
2022/07/08 11:41:15;;;;;;;6.63;2.80;;;;;;;25.46;42.30;102378.06;5062028;28;20080;-85
2022/07/08 11:43:42;;;;;;;8.07;2.90;;;;;;;24.61;43.70;102367.53;5061982;28;20087;-84
2022/07/08 11:46:18;;;;;;;5.55;2.70;;;;;;;23.21;45.73;102343.31;5059523;28;20045;-85
2022/07/08 11:48:45;;;;;;;11.85;3.70;;;;;;;23.57;45.14;102359.13;5050794;28;20045;-84
2022/07/08 11:51:13;;;;;;;6.45;2.97;;;;;;;23.87;45.18;102363.13;5051501;28;20052;-84